Andover, Pennsylvania
Current Conditions -  °F | °C
As of 1:53 PM on Thursday 27 Nov 2014 (Local Time) from KHGR Reporting Station
Overcast Overcast  
Wind Chill: 33°   Ceiling: 4600
Heat Index: 38°   Visibility: 10mi
Dew Point: 29°   Wind: 7mph
Humidity: 70%   Direction: 300°WNW
Pressure: 30.03"   Gusts: NA
Location:  39.973°N, 77.9661°W
Report Text: KHGR 271853Z 30006KT 10SM BKN046 OVC055 03/M02 A3003 RMK AO2 SLP185 T00331017 $
Loading
Personal Weather Stations






























Interactive Weather Map New forecast layout! Learn more

10-Day Weather Forecast

Advertisements
Track Severe Weather on mobile